sensor_id;sensor_type;location;lat;lon;timestamp;temperature;humidity
60313;DHT22;46158;52.850;6.970;2022-11-03T00:01:38;16.80;87.20
60313;DHT22;46158;52.850;6.970;2022-11-03T00:04:05;16.70;87.00
60313;DHT22;46158;52.850;6.970;2022-11-03T00:06:31;16.70;87.00
60313;DHT22;46158;52.850;6.970;2022-11-03T00:08:58;16.70;86.90
60313;DHT22;46158;52.850;6.970;2022-11-03T00:11:24;16.70;86.90
60313;DHT22;46158;52.850;6.970;2022-11-03T00:13:50;16.70;86.90
60313;DHT22;46158;52.850;6.970;2022-11-03T00:16:15;16.70;86.90
60313;DHT22;46158;52.850;6.970;2022-11-03T00:18:41;16.70;86.90
60313;DHT22;46158;52.850;6.970;2022-11-03T00:21:11;16.70;87.50
60313;DHT22;46158;52.850;6.970;2022-11-03T00:23:39;16.70;86.70
60313;DHT22;46158;52.850;6.970;2022-11-03T00:26:29;16.70;86.70
60313;DHT22;46158;52.850;6.970;2022-11-03T00:28:57;16.70;86.60
60313;DHT22;46158;52.850;6.970;2022-11-03T00:31:33;16.60;86.60
60313;DHT22;46158;52.850;6.970;2022-11-03T00:33:59;16.70;86.60
60313;DHT22;46158;52.850;6.970;2022-11-03T00:36:30;16.60;86.40
60313;DHT22;46158;52.850;6.970;2022-11-03T00:38:57;16.60;86.40
60313;DHT22;46158;52.850;6.970;2022-11-03T00:41:23;16.60;86.30
60313;DHT22;46158;52.850;6.970;2022-11-03T00:43:50;16.60;86.30
60313;DHT22;46158;52.850;6.970;2022-11-03T00:46:16;16.60;86.30
60313;DHT22;46158;52.850;6.970;2022-11-03T00:48:43;16.60;86.30
60313;DHT22;46158;52.850;6.970;2022-11-03T00:53:59;16.60;86.10
60313;DHT22;46158;52.850;6.970;2022-11-03T00:56:36;16.60;86.10
60313;DHT22;46158;52.850;6.970;2022-11-03T00:59:06;16.60;86.20
60313;DHT22;46158;52.850;6.970;2022-11-03T01:01:35;16.60;86.20
60313;DHT22;46158;52.850;6.970;2022-11-03T01:04:02;16.60;86.10
60313;DHT22;46158;52.850;6.970;2022-11-03T01:06:48;16.60;86.10
60313;DHT22;46158;52.850;6.970;2022-11-03T01:09:37;16.50;86.10
60313;DHT22;46158;52.850;6.970;2022-11-03T01:12:16;16.50;86.00
60313;DHT22;46158;52.850;6.970;2022-11-03T01:14:45;16.50;86.00
60313;DHT22;46158;52.850;6.970;2022-11-03T01:17:22;16.50;86.00
60313;DHT22;46158;52.850;6.970;2022-11-03T01:19:48;16.50;85.90
60313;DHT22;46158;52.850;6.970;2022-11-03T01:22:14;16.50;86.00
60313;DHT22;46158;52.850;6.970;2022-11-03T01:24:41;16.50;86.60
60313;DHT22;46158;52.850;6.970;2022-11-03T01:27:16;16.50;85.90
60313;DHT22;46158;52.850;6.970;2022-11-03T01:29:42;16.50;85.80
60313;DHT22;46158;52.850;6.970;2022-11-03T01:32:08;16.50;85.90
60313;DHT22;46158;52.850;6.970;2022-11-03T01:34:33;16.50;85.90
60313;DHT22;46158;52.850;6.970;2022-11-03T01:36:59;16.50;85.90
60313;DHT22;46158;52.850;6.970;2022-11-03T01:39:25;16.50;85.80
60313;DHT22;46158;52.850;6.970;2022-11-03T01:41:52;16.50;85.90
60313;DHT22;46158;52.850;6.970;2022-11-03T01:49:26;16.40;85.80
60313;DHT22;46158;52.850;6.970;2022-11-03T01:52:03;16.40;85.70
60313;DHT22;46158;52.850;6.970;2022-11-03T01:54:31;16.40;85.80
60313;DHT22;46158;52.850;6.970;2022-11-03T01:56:59;16.40;85.80
60313;DHT22;46158;52.850;6.970;2022-11-03T01:59:25;16.40;85.80
60313;DHT22;46158;52.850;6.970;2022-11-03T02:01:52;16.40;85.80
60313;DHT22;46158;52.850;6.970;2022-11-03T02:04:21;16.40;85.80
60313;DHT22;46158;52.850;6.970;2022-11-03T02:06:55;16.40;85.80
60313;DHT22;46158;52.850;6.970;2022-11-03T02:09:22;16.40;85.80
60313;DHT22;46158;52.850;6.970;2022-11-03T02:11:49;16.30;85.80
60313;DHT22;46158;52.850;6.970;2022-11-03T02:14:42;16.40;85.80
60313;DHT22;46158;52.850;6.970;2022-11-03T02:17:10;16.30;85.70
60313;DHT22;46158;52.850;6.970;2022-11-03T02:19:48;16.30;85.70
60313;DHT22;46158;52.850;6.970;2022-11-03T02:25:35;16.30;85.70
60313;DHT22;46158;52.850;6.970;2022-11-03T02:28:02;16.30;85.70
60313;DHT22;46158;52.850;6.970;2022-11-03T02:30:34;16.30;85.80
60313;DHT22;46158;52.850;6.970;2022-11-03T02:39:13;16.30;85.80
60313;DHT22;46158;52.850;6.970;2022-11-03T02:41:41;16.20;86.30
60313;DHT22;46158;52.850;6.970;2022-11-03T02:44:18;16.20;85.60
60313;DHT22;46158;52.850;6.970;2022-11-03T02:46:46;16.20;85.50
60313;DHT22;46158;52.850;6.970;2022-11-03T02:49:13;16.20;85.50
60313;DHT22;46158;52.850;6.970;2022-11-03T02:51:39;16.20;85.60
60313;DHT22;46158;52.850;6.970;2022-11-03T02:56:59;16.20;85.60
60313;DHT22;46158;52.850;6.970;2022-11-03T02:59:26;16.20;85.60
60313;DHT22;46158;52.850;6.970;2022-11-03T03:02:02;16.20;85.70
60313;DHT22;46158;52.850;6.970;2022-11-03T03:04:39;16.20;85.70
60313;DHT22;46158;52.850;6.970;2022-11-03T03:07:12;16.20;86.00
60313;DHT22;46158;52.850;6.970;2022-11-03T03:09:57;16.20;85.80
60313;DHT22;46158;52.850;6.970;2022-11-03T03:12:25;16.20;85.60
60313;DHT22;46158;52.850;6.970;2022-11-03T03:14:53;16.10;85.70
60313;DHT22;46158;52.850;6.970;2022-11-03T03:17:23;16.10;85.70
60313;DHT22;46158;52.850;6.970;2022-11-03T03:20:14;16.10;85.70
60313;DHT22;46158;52.850;6.970;2022-11-03T03:22:48;16.10;85.60
60313;DHT22;46158;52.850;6.970;2022-11-03T03:27:50;16.10;85.70
60313;DHT22;46158;52.850;6.970;2022-11-03T03:30:18;16.10;86.10
60313;DHT22;46158;52.850;6.970;2022-11-03T03:32:48;16.10;85.80
60313;DHT22;46158;52.850;6.970;2022-11-03T03:35:22;16.10;85.70
60313;DHT22;46158;52.850;6.970;2022-11-03T03:37:53;16.10;85.70
60313;DHT22;46158;52.850;6.970;2022-11-03T03:40:25;16.00;85.80
60313;DHT22;46158;52.850;6.970;2022-11-03T03:42:53;16.10;85.80
60313;DHT22;46158;52.850;6.970;2022-11-03T03:45:19;16.00;85.80
60313;DHT22;46158;52.850;6.970;2022-11-03T03:47:45;16.00;85.70
60313;DHT22;46158;52.850;6.970;2022-11-03T03:50:12;16.00;85.80
60313;DHT22;46158;52.850;6.970;2022-11-03T03:52:38;16.00;86.10
60313;DHT22;46158;52.850;6.970;2022-11-03T03:55:06;16.00;85.70
60313;DHT22;46158;52.850;6.970;2022-11-03T03:57:36;16.00;85.70
60313;DHT22;46158;52.850;6.970;2022-11-03T04:00:02;16.00;85.80
60313;DHT22;46158;52.850;6.970;2022-11-03T04:02:28;16.00;85.80
60313;DHT22;46158;52.850;6.970;2022-11-03T04:04:54;16.00;85.80
60313;DHT22;46158;52.850;6.970;2022-11-03T04:07:19;15.90;85.70
60313;DHT22;46158;52.850;6.970;2022-11-03T04:10:04;16.00;85.80
60313;DHT22;46158;52.850;6.970;2022-11-03T04:12:30;15.90;85.70
60313;DHT22;46158;52.850;6.970;2022-11-03T04:15:14;15.90;85.70
60313;DHT22;46158;52.850;6.970;2022-11-03T04:17:59;15.90;85.70
60313;DHT22;46158;52.850;6.970;2022-11-03T04:20:43;15.90;85.80
60313;DHT22;46158;52.850;6.970;2022-11-03T04:23:27;15.90;85.80
60313;DHT22;46158;52.850;6.970;2022-11-03T04:25:54;15.90;85.70
60313;DHT22;46158;52.850;6.970;2022-11-03T04:28:21;15.90;85.70
60313;DHT22;46158;52.850;6.970;2022-11-03T04:30:47;15.90;85.70
60313;DHT22;46158;52.850;6.970;2022-11-03T04:33:14;15.90;85.70
60313;DHT22;46158;52.850;6.970;2022-11-03T04:35:41;15.80;85.90
60313;DHT22;46158;52.850;6.970;2022-11-03T04:40:44;15.80;85.60
60313;DHT22;46158;52.850;6.970;2022-11-03T04:43:13;15.90;85.70
60313;DHT22;46158;52.850;6.970;2022-11-03T04:45:39;15.80;85.60
60313;DHT22;46158;52.850;6.970;2022-11-03T04:48:20;15.80;85.60
60313;DHT22;46158;52.850;6.970;2022-11-03T04:50:47;15.80;85.50
60313;DHT22;46158;52.850;6.970;2022-11-03T04:53:16;15.80;85.70
60313;DHT22;46158;52.850;6.970;2022-11-03T04:55:44;15.80;85.60
60313;DHT22;46158;52.850;6.970;2022-11-03T04:58:31;15.80;85.70
60313;DHT22;46158;52.850;6.970;2022-11-03T05:01:00;15.80;85.40
60313;DHT22;46158;52.850;6.970;2022-11-03T05:03:34;15.80;85.60
60313;DHT22;46158;52.850;6.970;2022-11-03T05:06:14;15.80;85.50
60313;DHT22;46158;52.850;6.970;2022-11-03T05:08:44;15.80;85.10
60313;DHT22;46158;52.850;6.970;2022-11-03T05:11:30;15.80;85.10
60313;DHT22;46158;52.850;6.970;2022-11-03T05:13:59;15.90;85.00
60313;DHT22;46158;52.850;6.970;2022-11-03T05:16:26;15.90;85.10
60313;DHT22;46158;52.850;6.970;2022-11-03T05:18:52;16.00;85.20
60313;DHT22;46158;52.850;6.970;2022-11-03T05:21:21;16.10;85.20
60313;DHT22;46158;52.850;6.970;2022-11-03T05:23:50;16.20;85.30
60313;DHT22;46158;52.850;6.970;2022-11-03T05:26:38;16.30;85.20
60313;DHT22;46158;52.850;6.970;2022-11-03T05:29:23;16.40;84.80
60313;DHT22;46158;52.850;6.970;2022-11-03T05:31:51;16.50;84.80
60313;DHT22;46158;52.850;6.970;2022-11-03T05:36:43;16.70;84.50
60313;DHT22;46158;52.850;6.970;2022-11-03T05:41:49;17.00;83.50
60313;DHT22;46158;52.850;6.970;2022-11-03T05:44:26;17.10;83.40
60313;DHT22;46158;52.850;6.970;2022-11-03T05:46:52;17.20;83.00
60313;DHT22;46158;52.850;6.970;2022-11-03T05:49:18;17.30;82.60
60313;DHT22;46158;52.850;6.970;2022-11-03T05:51:44;17.40;82.30
60313;DHT22;46158;52.850;6.970;2022-11-03T05:54:22;17.50;82.00
60313;DHT22;46158;52.850;6.970;2022-11-03T05:56:49;17.60;81.60
60313;DHT22;46158;52.850;6.970;2022-11-03T05:59:19;17.70;81.50
60313;DHT22;46158;52.850;6.970;2022-11-03T06:01:51;17.70;81.30
60313;DHT22;46158;52.850;6.970;2022-11-03T06:04:30;17.80;81.00
60313;DHT22;46158;52.850;6.970;2022-11-03T06:07:02;17.80;80.80
60313;DHT22;46158;52.850;6.970;2022-11-03T06:09:30;17.90;80.70
60313;DHT22;46158;52.850;6.970;2022-11-03T06:11:58;17.90;80.50
60313;DHT22;46158;52.850;6.970;2022-11-03T06:14:26;17.90;80.60
60313;DHT22;46158;52.850;6.970;2022-11-03T06:17:04;17.90;80.80
60313;DHT22;46158;52.850;6.970;2022-11-03T06:19:38;17.80;80.90
60313;DHT22;46158;52.850;6.970;2022-11-03T06:22:34;17.70;81.30
60313;DHT22;46158;52.850;6.970;2022-11-03T06:25:30;17.60;81.30
60313;DHT22;46158;52.850;6.970;2022-11-03T06:28:03;17.50;81.30
60313;DHT22;46158;52.850;6.970;2022-11-03T06:30:33;17.40;81.70
60313;DHT22;46158;52.850;6.970;2022-11-03T06:33:12;17.30;81.70
60313;DHT22;46158;52.850;6.970;2022-11-03T06:35:38;17.20;81.80
60313;DHT22;46158;52.850;6.970;2022-11-03T06:38:14;17.10;81.90
60313;DHT22;46158;52.850;6.970;2022-11-03T06:40:42;17.10;82.00
60313;DHT22;46158;52.850;6.970;2022-11-03T06:43:15;17.00;82.10
60313;DHT22;46158;52.850;6.970;2022-11-03T06:45:54;16.90;82.10
60313;DHT22;46158;52.850;6.970;2022-11-03T06:48:25;16.90;82.40
60313;DHT22;46158;52.850;6.970;2022-11-03T06:50:53;16.90;82.60
60313;DHT22;46158;52.850;6.970;2022-11-03T06:53:31;16.80;82.60
60313;DHT22;46158;52.850;6.970;2022-11-03T06:55:58;16.80;82.70
60313;DHT22;46158;52.850;6.970;2022-11-03T06:58:33;16.70;82.80
60313;DHT22;46158;52.850;6.970;2022-11-03T07:01:11;16.70;82.80
60313;DHT22;46158;52.850;6.970;2022-11-03T07:03:38;16.60;82.90
60313;DHT22;46158;52.850;6.970;2022-11-03T07:08:48;16.60;83.20
60313;DHT22;46158;52.850;6.970;2022-11-03T07:11:18;16.50;83.20
60313;DHT22;46158;52.850;6.970;2022-11-03T07:13:50;16.50;83.30
60313;DHT22;46158;52.850;6.970;2022-11-03T07:16:40;16.50;83.40
60313;DHT22;46158;52.850;6.970;2022-11-03T07:19:16;16.50;83.40
60313;DHT22;46158;52.850;6.970;2022-11-03T07:21:49;16.30;83.40
60313;DHT22;46158;52.850;6.970;2022-11-03T07:24:21;16.40;83.70
60313;DHT22;46158;52.850;6.970;2022-11-03T07:27:38;16.30;83.60
60313;DHT22;46158;52.850;6.970;2022-11-03T07:29:38;16.30;83.70
60313;DHT22;46158;52.850;6.970;2022-11-03T07:32:14;16.30;83.80
60313;DHT22;46158;52.850;6.970;2022-11-03T07:34:40;16.30;83.90
60313;DHT22;46158;52.850;6.970;2022-11-03T07:37:14;16.30;83.90
60313;DHT22;46158;52.850;6.970;2022-11-03T07:39:40;16.30;83.90
60313;DHT22;46158;52.850;6.970;2022-11-03T07:42:20;16.20;83.90
60313;DHT22;46158;52.850;6.970;2022-11-03T07:44:47;16.20;84.60
60313;DHT22;46158;52.850;6.970;2022-11-03T07:47:17;16.20;84.00
60313;DHT22;46158;52.850;6.970;2022-11-03T07:49:43;16.20;84.10
60313;DHT22;46158;52.850;6.970;2022-11-03T07:52:12;16.10;84.00
60313;DHT22;46158;52.850;6.970;2022-11-03T07:54:39;16.10;84.20
60313;DHT22;46158;52.850;6.970;2022-11-03T07:57:14;16.10;84.20
60313;DHT22;46158;52.850;6.970;2022-11-03T07:59:46;16.10;84.10
60313;DHT22;46158;52.850;6.970;2022-11-03T08:04:50;16.10;84.20
60313;DHT22;46158;52.850;6.970;2022-11-03T08:07:16;16.10;84.30
60313;DHT22;46158;52.850;6.970;2022-11-03T08:09:41;16.10;84.30
60313;DHT22;46158;52.850;6.970;2022-11-03T08:12:07;16.10;84.30
60313;DHT22;46158;52.850;6.970;2022-11-03T08:14:33;16.00;84.30
60313;DHT22;46158;52.850;6.970;2022-11-03T08:16:59;16.00;84.40
60313;DHT22;46158;52.850;6.970;2022-11-03T08:19:25;16.00;84.40
60313;DHT22;46158;52.850;6.970;2022-11-03T08:21:50;16.00;84.40
60313;DHT22;46158;52.850;6.970;2022-11-03T08:24:16;16.00;84.40
60313;DHT22;46158;52.850;6.970;2022-11-03T08:26:42;16.00;84.40
60313;DHT22;46158;52.850;6.970;2022-11-03T08:29:07;16.00;84.40
60313;DHT22;46158;52.850;6.970;2022-11-03T08:31:34;16.00;84.40
60313;DHT22;46158;52.850;6.970;2022-11-03T08:34:00;16.00;84.40
60313;DHT22;46158;52.850;6.970;2022-11-03T08:36:25;16.00;84.40
60313;DHT22;46158;52.850;6.970;2022-11-03T08:38:51;16.00;84.40
60313;DHT22;46158;52.850;6.970;2022-11-03T08:41:16;16.00;84.30
60313;DHT22;46158;52.850;6.970;2022-11-03T08:43:42;16.00;84.30
60313;DHT22;46158;52.850;6.970;2022-11-03T08:46:08;16.00;84.30
60313;DHT22;46158;52.850;6.970;2022-11-03T08:48:34;16.00;84.30
60313;DHT22;46158;52.850;6.970;2022-11-03T08:50:59;16.00;84.40
60313;DHT22;46158;52.850;6.970;2022-11-03T08:53:26;15.90;84.30
60313;DHT22;46158;52.850;6.970;2022-11-03T08:55:54;16.00;84.40
60313;DHT22;46158;52.850;6.970;2022-11-03T08:58:21;16.00;84.60
60313;DHT22;46158;52.850;6.970;2022-11-03T09:00:48;16.00;84.80
60313;DHT22;46158;52.850;6.970;2022-11-03T09:03:14;16.10;84.90
60313;DHT22;46158;52.850;6.970;2022-11-03T09:05:40;16.10;85.10
60313;DHT22;46158;52.850;6.970;2022-11-03T09:08:06;16.20;85.20
60313;DHT22;46158;52.850;6.970;2022-11-03T09:10:32;16.40;85.90
60313;DHT22;46158;52.850;6.970;2022-11-03T09:12:58;16.50;85.20
60313;DHT22;46158;52.850;6.970;2022-11-03T09:15:24;16.60;85.00
60313;DHT22;46158;52.850;6.970;2022-11-03T09:17:49;16.70;84.80
60313;DHT22;46158;52.850;6.970;2022-11-03T09:20:15;16.90;84.60
60313;DHT22;46158;52.850;6.970;2022-11-03T09:22:41;17.10;84.30
60313;DHT22;46158;52.850;6.970;2022-11-03T09:25:07;17.10;84.00
60313;DHT22;46158;52.850;6.970;2022-11-03T09:27:32;17.30;83.70
60313;DHT22;46158;52.850;6.970;2022-11-03T09:29:58;17.40;83.50
60313;DHT22;46158;52.850;6.970;2022-11-03T09:32:25;17.50;83.20
60313;DHT22;46158;52.850;6.970;2022-11-03T09:34:51;17.60;83.50
60313;DHT22;46158;52.850;6.970;2022-11-03T09:37:16;17.60;82.40
60313;DHT22;46158;52.850;6.970;2022-11-03T09:39:43;17.70;82.20
60313;DHT22;46158;52.850;6.970;2022-11-03T09:42:10;17.80;82.00
60313;DHT22;46158;52.850;6.970;2022-11-03T09:44:37;17.80;81.70
60313;DHT22;46158;52.850;6.970;2022-11-03T09:47:04;17.90;81.60
60313;DHT22;46158;52.850;6.970;2022-11-03T09:49:31;17.90;81.30
60313;DHT22;46158;52.850;6.970;2022-11-03T09:51:59;18.00;81.20
60313;DHT22;46158;52.850;6.970;2022-11-03T09:54:26;18.00;81.00
60313;DHT22;46158;52.850;6.970;2022-11-03T09:56:52;18.00;80.80
60313;DHT22;46158;52.850;6.970;2022-11-03T09:59:21;18.10;80.80
60313;DHT22;46158;52.850;6.970;2022-11-03T10:01:49;18.10;80.50
60313;DHT22;46158;52.850;6.970;2022-11-03T10:04:24;18.10;80.30
60313;DHT22;46158;52.850;6.970;2022-11-03T10:06:51;18.20;80.70
60313;DHT22;46158;52.850;6.970;2022-11-03T10:09:17;18.20;80.60
60313;DHT22;46158;52.850;6.970;2022-11-03T10:11:45;18.20;80.10
60313;DHT22;46158;52.850;6.970;2022-11-03T10:14:13;18.30;80.00
60313;DHT22;46158;52.850;6.970;2022-11-03T10:16:41;18.30;79.80
60313;DHT22;46158;52.850;6.970;2022-11-03T10:19:11;18.30;79.70
60313;DHT22;46158;52.850;6.970;2022-11-03T10:21:40;18.40;79.60
60313;DHT22;46158;52.850;6.970;2022-11-03T10:24:12;18.40;79.50
60313;DHT22;46158;52.850;6.970;2022-11-03T10:26:48;18.40;79.30
60313;DHT22;46158;52.850;6.970;2022-11-03T10:29:27;18.50;79.20
60313;DHT22;46158;52.850;6.970;2022-11-03T10:31:56;18.50;79.10
60313;DHT22;46158;52.850;6.970;2022-11-03T10:34:36;18.50;79.00
60313;DHT22;46158;52.850;6.970;2022-11-03T10:37:22;18.60;79.00
60313;DHT22;46158;52.850;6.970;2022-11-03T10:39:57;18.60;79.00
60313;DHT22;46158;52.850;6.970;2022-11-03T10:42:30;18.70;78.80
60313;DHT22;46158;52.850;6.970;2022-11-03T10:45:16;18.60;78.70
60313;DHT22;46158;52.850;6.970;2022-11-03T10:47:42;18.70;78.80
60313;DHT22;46158;52.850;6.970;2022-11-03T10:50:23;18.70;78.80
60313;DHT22;46158;52.850;6.970;2022-11-03T10:52:50;18.70;78.50
60313;DHT22;46158;52.850;6.970;2022-11-03T10:55:21;18.70;78.50
60313;DHT22;46158;52.850;6.970;2022-11-03T10:57:48;18.80;78.40
60313;DHT22;46158;52.850;6.970;2022-11-03T11:00:17;18.80;78.40
60313;DHT22;46158;52.850;6.970;2022-11-03T11:02:45;18.80;78.30
60313;DHT22;46158;52.850;6.970;2022-11-03T11:05:18;18.80;78.20
60313;DHT22;46158;52.850;6.970;2022-11-03T11:07:44;18.80;78.10
60313;DHT22;46158;52.850;6.970;2022-11-03T11:10:12;18.80;78.00
60313;DHT22;46158;52.850;6.970;2022-11-03T11:12:38;18.80;78.00
60313;DHT22;46158;52.850;6.970;2022-11-03T11:17:59;18.90;77.90
60313;DHT22;46158;52.850;6.970;2022-11-03T11:20:39;18.90;78.00
60313;DHT22;46158;52.850;6.970;2022-11-03T11:28:45;18.90;77.70
60313;DHT22;46158;52.850;6.970;2022-11-03T11:31:30;19.00;77.70
60313;DHT22;46158;52.850;6.970;2022-11-03T11:36:40;19.00;77.60
60313;DHT22;46158;52.850;6.970;2022-11-03T11:52:45;19.00;77.80
60313;DHT22;46158;52.850;6.970;2022-11-03T11:55:31;19.10;77.90
60313;DHT22;46158;52.850;6.970;2022-11-03T11:58:01;19.00;77.80
60313;DHT22;46158;52.850;6.970;2022-11-03T12:00:32;18.90;78.00
60313;DHT22;46158;52.850;6.970;2022-11-03T12:03:00;18.80;78.10
60313;DHT22;46158;52.850;6.970;2022-11-03T12:05:34;18.70;78.30
60313;DHT22;46158;52.850;6.970;2022-11-03T12:08:00;18.60;78.40
60313;DHT22;46158;52.850;6.970;2022-11-03T12:10:30;18.50;78.60
60313;DHT22;46158;52.850;6.970;2022-11-03T12:12:57;18.40;79.40
60313;DHT22;46158;52.850;6.970;2022-11-03T12:15:57;18.40;78.90
60313;DHT22;46158;52.850;6.970;2022-11-03T12:18:38;18.30;79.00
60313;DHT22;46158;52.850;6.970;2022-11-03T12:21:09;18.20;79.10
60313;DHT22;46158;52.850;6.970;2022-11-03T12:26:02;18.10;79.60
60313;DHT22;46158;52.850;6.970;2022-11-03T12:28:36;18.00;79.50
60313;DHT22;46158;52.850;6.970;2022-11-03T12:31:04;18.00;79.60
60313;DHT22;46158;52.850;6.970;2022-11-03T12:33:30;17.90;79.80
60313;DHT22;46158;52.850;6.970;2022-11-03T12:35:56;17.90;79.90
60313;DHT22;46158;52.850;6.970;2022-11-03T12:38:23;17.80;80.00
60313;DHT22;46158;52.850;6.970;2022-11-03T12:40:49;17.80;80.00
60313;DHT22;46158;52.850;6.970;2022-11-03T12:43:15;17.80;80.10
60313;DHT22;46158;52.850;6.970;2022-11-03T12:45:41;17.90;80.20
60313;DHT22;46158;52.850;6.970;2022-11-03T12:48:07;18.00;80.20
60313;DHT22;46158;52.850;6.970;2022-11-03T12:50:33;18.00;80.20
60313;DHT22;46158;52.850;6.970;2022-11-03T12:52:59;18.00;80.30
60313;DHT22;46158;52.850;6.970;2022-11-03T12:55:25;18.00;80.30
60313;DHT22;46158;52.850;6.970;2022-11-03T12:57:50;17.90;80.40
60313;DHT22;46158;52.850;6.970;2022-11-03T13:00:17;17.90;80.40
60313;DHT22;46158;52.850;6.970;2022-11-03T13:02:43;17.90;80.50
60313;DHT22;46158;52.850;6.970;2022-11-03T13:05:08;17.80;80.50
60313;DHT22;46158;52.850;6.970;2022-11-03T13:07:34;17.80;80.60
60313;DHT22;46158;52.850;6.970;2022-11-03T13:10:00;17.70;80.60
60313;DHT22;46158;52.850;6.970;2022-11-03T13:12:26;17.70;80.70
60313;DHT22;46158;52.850;6.970;2022-11-03T13:14:59;17.70;80.80
60313;DHT22;46158;52.850;6.970;2022-11-03T13:17:26;17.60;80.70
60313;DHT22;46158;52.850;6.970;2022-11-03T13:19:52;17.60;80.80
60313;DHT22;46158;52.850;6.970;2022-11-03T13:22:18;17.60;80.80
60313;DHT22;46158;52.850;6.970;2022-11-03T13:24:44;17.50;80.90
60313;DHT22;46158;52.850;6.970;2022-11-03T13:27:10;17.50;80.90
60313;DHT22;46158;52.850;6.970;2022-11-03T13:29:36;17.50;80.90
60313;DHT22;46158;52.850;6.970;2022-11-03T13:32:02;17.50;80.90
60313;DHT22;46158;52.850;6.970;2022-11-03T13:34:28;17.50;80.90
60313;DHT22;46158;52.850;6.970;2022-11-03T13:36:54;17.60;80.90
60313;DHT22;46158;52.850;6.970;2022-11-03T13:39:20;17.70;80.90
60313;DHT22;46158;52.850;6.970;2022-11-03T13:41:46;17.80;80.80
60313;DHT22;46158;52.850;6.970;2022-11-03T13:44:12;17.80;80.80
60313;DHT22;46158;52.850;6.970;2022-11-03T13:46:37;17.80;80.90
60313;DHT22;46158;52.850;6.970;2022-11-03T13:49:03;17.80;81.00
60313;DHT22;46158;52.850;6.970;2022-11-03T13:51:29;17.70;81.00
60313;DHT22;46158;52.850;6.970;2022-11-03T13:53:55;17.70;81.00
60313;DHT22;46158;52.850;6.970;2022-11-03T13:56:21;17.70;81.00
60313;DHT22;46158;52.850;6.970;2022-11-03T13:58:47;17.60;81.00
60313;DHT22;46158;52.850;6.970;2022-11-03T14:01:13;17.60;81.10
60313;DHT22;46158;52.850;6.970;2022-11-03T14:03:38;17.60;81.10
60313;DHT22;46158;52.850;6.970;2022-11-03T14:06:04;17.50;81.10
60313;DHT22;46158;52.850;6.970;2022-11-03T14:08:30;17.50;81.10
60313;DHT22;46158;52.850;6.970;2022-11-03T14:10:56;17.50;81.20
60313;DHT22;46158;52.850;6.970;2022-11-03T14:13:22;17.50;81.30
60313;DHT22;46158;52.850;6.970;2022-11-03T14:15:48;17.40;81.20
60313;DHT22;46158;52.850;6.970;2022-11-03T14:18:14;17.40;81.30
60313;DHT22;46158;52.850;6.970;2022-11-03T14:20:39;17.40;81.30
60313;DHT22;46158;52.850;6.970;2022-11-03T14:23:05;17.40;81.20
60313;DHT22;46158;52.850;6.970;2022-11-03T14:25:31;17.40;81.10
60313;DHT22;46158;52.850;6.970;2022-11-03T14:27:56;17.50;81.10
60313;DHT22;46158;52.850;6.970;2022-11-03T14:30:24;17.60;81.10
60313;DHT22;46158;52.850;6.970;2022-11-03T14:32:53;17.70;81.10
60313;DHT22;46158;52.850;6.970;2022-11-03T14:35:19;17.70;81.00
60313;DHT22;46158;52.850;6.970;2022-11-03T14:37:47;17.70;81.00
60313;DHT22;46158;52.850;6.970;2022-11-03T14:40:13;17.70;81.10
60313;DHT22;46158;52.850;6.970;2022-11-03T14:42:58;17.70;81.10
60313;DHT22;46158;52.850;6.970;2022-11-03T14:45:25;17.60;81.10
60313;DHT22;46158;52.850;6.970;2022-11-03T14:47:50;17.60;81.10
60313;DHT22;46158;52.850;6.970;2022-11-03T14:50:19;17.60;81.10
60313;DHT22;46158;52.850;6.970;2022-11-03T14:52:45;17.50;81.20
60313;DHT22;46158;52.850;6.970;2022-11-03T14:55:10;17.50;81.10
60313;DHT22;46158;52.850;6.970;2022-11-03T14:57:36;17.50;81.20
60313;DHT22;46158;52.850;6.970;2022-11-03T15:00:02;17.50;81.20
60313;DHT22;46158;52.850;6.970;2022-11-03T15:02:27;17.40;81.30
60313;DHT22;46158;52.850;6.970;2022-11-03T15:04:53;17.40;81.20
60313;DHT22;46158;52.850;6.970;2022-11-03T15:07:19;17.40;81.30
60313;DHT22;46158;52.850;6.970;2022-11-03T15:09:45;17.40;81.30
60313;DHT22;46158;52.850;6.970;2022-11-03T15:12:10;17.30;81.20
60313;DHT22;46158;52.850;6.970;2022-11-03T15:14:36;17.40;81.10
60313;DHT22;46158;52.850;6.970;2022-11-03T15:17:02;17.40;81.00
60313;DHT22;46158;52.850;6.970;2022-11-03T15:19:27;17.50;81.00
60313;DHT22;46158;52.850;6.970;2022-11-03T15:21:53;17.60;81.00
60313;DHT22;46158;52.850;6.970;2022-11-03T15:24:19;17.60;80.90
60313;DHT22;46158;52.850;6.970;2022-11-03T15:26:44;17.70;80.90
60313;DHT22;46158;52.850;6.970;2022-11-03T15:29:10;17.70;81.00
60313;DHT22;46158;52.850;6.970;2022-11-03T15:31:35;17.70;81.00
60313;DHT22;46158;52.850;6.970;2022-11-03T15:34:01;17.60;81.00
60313;DHT22;46158;52.850;6.970;2022-11-03T15:36:27;17.60;81.00
60313;DHT22;46158;52.850;6.970;2022-11-03T15:38:53;17.60;81.10
60313;DHT22;46158;52.850;6.970;2022-11-03T15:41:18;17.60;81.20
60313;DHT22;46158;52.850;6.970;2022-11-03T15:43:48;17.50;81.10
60313;DHT22;46158;52.850;6.970;2022-11-03T15:46:17;17.50;81.10
60313;DHT22;46158;52.850;6.970;2022-11-03T15:48:46;17.50;81.20
60313;DHT22;46158;52.850;6.970;2022-11-03T15:51:13;17.40;81.20
60313;DHT22;46158;52.850;6.970;2022-11-03T15:53:38;17.40;81.30
60313;DHT22;46158;52.850;6.970;2022-11-03T15:56:05;17.40;81.30
60313;DHT22;46158;52.850;6.970;2022-11-03T15:58:30;17.40;81.40
60313;DHT22;46158;52.850;6.970;2022-11-03T16:00:59;17.40;81.40
60313;DHT22;46158;52.850;6.970;2022-11-03T16:03:25;17.30;81.90
60313;DHT22;46158;52.850;6.970;2022-11-03T16:05:50;17.40;81.20
60313;DHT22;46158;52.850;6.970;2022-11-03T16:08:16;17.50;81.10
60313;DHT22;46158;52.850;6.970;2022-11-03T16:10:42;17.60;81.00
60313;DHT22;46158;52.850;6.970;2022-11-03T16:13:07;17.70;80.90
60313;DHT22;46158;52.850;6.970;2022-11-03T16:15:33;17.80;80.50
60313;DHT22;46158;52.850;6.970;2022-11-03T16:18:00;17.90;80.40
60313;DHT22;46158;52.850;6.970;2022-11-03T16:20:30;17.90;80.20
60313;DHT22;46158;52.850;6.970;2022-11-03T16:22:56;18.10;80.00
60313;DHT22;46158;52.850;6.970;2022-11-03T16:25:22;18.10;79.80
60313;DHT22;46158;52.850;6.970;2022-11-03T16:27:48;18.20;79.80
60313;DHT22;46158;52.850;6.970;2022-11-03T16:30:13;18.10;79.80
60313;DHT22;46158;52.850;6.970;2022-11-03T16:32:39;18.10;80.00
60313;DHT22;46158;52.850;6.970;2022-11-03T16:35:05;18.00;80.10
60313;DHT22;46158;52.850;6.970;2022-11-03T16:37:31;18.00;80.10
60313;DHT22;46158;52.850;6.970;2022-11-03T16:39:57;17.90;80.20
60313;DHT22;46158;52.850;6.970;2022-11-03T16:42:23;17.90;80.30
60313;DHT22;46158;52.850;6.970;2022-11-03T16:44:48;17.90;80.40
60313;DHT22;46158;52.850;6.970;2022-11-03T16:47:14;17.80;80.50